Time;durP1;ratioP1;P1;durP2;ratioP2;P2;SDS_P1;SDS_P2;PMS_P1;PMS_P2;Temp;Humidity;BMP_temperature;BMP_pressure;BME280_temperature;BME280_humidity;BME280_pressure;Samples;Min_cycle;Max_cycle;Signal;HPM_P1;HPM_P2
2021/05/22 00:01:58;;;;;;;7.80;4.13;;;15.90;67.50;;;;;;5078090;28;20027;-66
2021/05/22 00:04:23;;;;;;;4.97;4.18;;;15.90;67.50;;;;;;5077303;28;20025;-66
2021/05/22 00:06:49;;;;;;;5.13;4.18;;;15.80;67.00;;;;;;5095696;28;20031;-66
2021/05/22 00:09:15;;;;;;;5.82;4.60;;;15.80;67.20;;;;;;5095308;28;20089;-66
2021/05/22 00:11:40;;;;;;;5.60;4.78;;;15.70;67.10;;;;;;5095157;28;20020;-66
2021/05/22 00:14:06;;;;;;;6.00;4.38;;;15.70;67.10;;;;;;5095629;28;20024;-67
2021/05/22 00:16:33;;;;;;;5.65;4.65;;;15.70;67.10;;;;;;5095416;28;20067;-66
2021/05/22 00:18:59;;;;;;;6.75;4.50;;;15.60;67.00;;;;;;5095425;28;20083;-66
2021/05/22 00:21:24;;;;;;;6.00;4.70;;;15.60;67.00;;;;;;5076072;28;20103;-66
2021/05/22 00:23:50;;;;;;;5.80;4.75;;;15.60;67.20;;;;;;5095328;28;20471;-66
2021/05/22 00:26:16;;;;;;;6.18;5.13;;;15.50;67.20;;;;;;5077315;28;20085;-66
2021/05/22 00:28:41;;;;;;;5.75;4.20;;;15.50;67.20;;;;;;5094728;28;20053;-66
2021/05/22 00:31:07;;;;;;;5.43;4.20;;;15.40;67.40;;;;;;5095137;28;20028;-66
2021/05/22 00:33:32;;;;;;;5.88;4.30;;;15.40;67.50;;;;;;5095141;28;20115;-66
2021/05/22 00:35:58;;;;;;;5.50;4.30;;;15.30;67.80;;;;;;5095111;28;20095;-66
2021/05/22 00:38:24;;;;;;;5.45;4.38;;;15.30;67.90;;;;;;5094939;28;20024;-66
2021/05/22 00:40:49;;;;;;;7.05;5.20;;;15.30;67.90;;;;;;5094797;28;20115;-66
2021/05/22 00:43:15;;;;;;;6.57;5.07;;;15.30;67.80;;;;;;5094930;28;20030;-66
2021/05/22 00:45:41;;;;;;;5.78;4.40;;;15.20;67.40;;;;;;5094876;28;20055;-66
2021/05/22 00:48:07;;;;;;;6.72;5.60;;;15.20;67.40;;;;;;5094775;28;20138;-66
2021/05/22 00:50:39;;;;;;;5.80;4.75;;;15.20;67.10;;;;;;5092604;28;20032;-66
2021/05/22 00:53:06;;;;;;;7.85;4.72;;;15.20;67.00;;;;;;5094585;28;20111;-66
2021/05/22 00:55:33;;;;;;;5.47;4.40;;;15.10;67.20;;;;;;5094783;28;20457;-66
2021/05/22 00:58:00;;;;;;;7.60;5.57;;;15.10;66.90;;;;;;5094429;28;20073;-66
2021/05/22 01:00:38;;;;;;;7.40;5.60;;;15.10;66.70;;;;;;5094438;28;20067;-66
2021/05/22 01:03:05;;;;;;;9.00;6.60;;;15.10;66.60;;;;;;5094702;28;20399;-66
2021/05/22 01:05:31;;;;;;;9.35;6.95;;;15.10;66.40;;;;;;5094430;28;20028;-66
2021/05/22 01:07:57;;;;;;;9.65;7.53;;;15.10;66.40;;;;;;5093222;28;20035;-66
2021/05/22 01:10:23;;;;;;;11.57;8.45;;;15.00;66.60;;;;;;5094580;28;20055;-66
2021/05/22 01:12:54;;;;;;;14.70;9.63;;;15.00;66.60;;;;;;5076043;28;20036;-66
2021/05/22 01:15:25;;;;;;;15.10;9.70;;;14.90;66.50;;;;;;5094526;28;20030;-66
2021/05/22 01:17:51;;;;;;;11.80;9.90;;;14.90;66.50;;;;;;5088935;28;20020;-66
2021/05/22 01:20:45;;;;;;;11.63;8.85;;;14.90;66.50;;;;;;5094268;28;20039;-66
2021/05/22 01:23:21;;;;;;;11.75;9.55;;;14.90;66.60;;;;;;5079134;28;20026;-66
2021/05/22 01:25:51;;;;;;;12.25;8.57;;;14.80;66.60;;;;;;5074096;28;20030;-66
2021/05/22 01:28:17;;;;;;;10.40;7.30;;;14.80;66.60;;;;;;5080321;28;20024;-66
2021/05/22 01:30:44;;;;;;;10.23;7.32;;;14.70;66.40;;;;;;5094295;28;20103;-66
2021/05/22 01:33:10;;;;;;;9.07;6.97;;;14.80;66.50;;;;;;5093930;28;20483;-66
2021/05/22 01:35:37;;;;;;;9.77;6.55;;;14.80;66.50;;;;;;5094041;28;20020;-66
2021/05/22 01:38:03;;;;;;;8.73;6.07;;;14.80;66.00;;;;;;5093772;28;20016;-66
2021/05/22 01:40:29;;;;;;;10.40;6.30;;;14.80;65.90;;;;;;5094055;28;20099;-66
2021/05/22 01:42:54;;;;;;;9.13;6.20;;;14.80;65.60;;;;;;5093923;28;20035;-66
2021/05/22 01:45:32;;;;;;;8.18;6.95;;;14.90;65.70;;;;;;5075647;28;20127;-66
2021/05/22 01:48:01;;;;;;;9.77;6.65;;;14.80;65.60;;;;;;5093363;28;20495;-66
2021/05/22 01:50:31;;;;;;;11.98;6.20;;;14.80;65.70;;;;;;5093252;28;20035;-66
2021/05/22 01:52:58;;;;;;;8.85;6.10;;;14.90;65.70;;;;;;5093203;28;20024;-66
2021/05/22 01:55:26;;;;;;;10.05;6.80;;;14.90;65.80;;;;;;5093789;28;20039;-66
2021/05/22 01:57:52;;;;;;;8.80;5.90;;;14.80;65.80;;;;;;5093464;28;20519;-66
2021/05/22 02:00:18;;;;;;;7.57;5.55;;;14.90;66.00;;;;;;5093647;28;20130;-66
2021/05/22 02:03:01;;;;;;;7.45;5.80;;;14.80;66.00;;;;;;5093595;28;20097;-66
2021/05/22 02:05:29;;;;;;;7.13;5.50;;;14.80;66.00;;;;;;5075688;28;20051;-66
2021/05/22 02:07:56;;;;;;;8.82;5.68;;;14.80;66.20;;;;;;5093307;28;20081;-66
2021/05/22 02:10:24;;;;;;;8.95;5.60;;;14.70;66.20;;;;;;5092759;28;20119;-66
2021/05/22 02:12:52;;;;;;;8.45;6.03;;;14.70;66.50;;;;;;5093193;28;20507;-66
2021/05/22 02:15:19;;;;;;;7.78;6.03;;;14.70;66.50;;;;;;5092881;28;20460;-66
2021/05/22 02:17:47;;;;;;;8.63;6.80;;;14.70;66.70;;;;;;5092971;28;20012;-66
2021/05/22 02:20:15;;;;;;;8.68;7.28;;;14.70;67.00;;;;;;5096545;28;20034;-66
2021/05/22 02:22:43;;;;;;;11.82;8.85;;;14.70;66.90;;;;;;5078686;28;20144;-66
2021/05/22 02:25:11;;;;;;;10.70;8.32;;;14.70;67.00;;;;;;5097077;28;20063;-66
2021/05/22 02:27:37;;;;;;;11.75;8.40;;;14.70;67.10;;;;;;5096923;28;20032;-66
2021/05/22 02:30:10;;;;;;;11.30;8.90;;;14.70;67.30;;;;;;5096534;28;20026;-66
2021/05/22 02:32:39;;;;;;;15.52;9.05;;;14.70;67.40;;;;;;5078565;28;20032;-66
2021/05/22 02:35:06;;;;;;;11.88;8.70;;;14.80;67.50;;;;;;5096796;28;20021;-66
2021/05/22 02:37:34;;;;;;;8.82;7.50;;;14.80;67.50;;;;;;5096919;28;20051;-66
2021/05/22 02:40:15;;;;;;;10.00;7.85;;;14.80;67.50;;;;;;5096990;28;20066;-66
2021/05/22 02:42:50;;;;;;;12.70;9.00;;;14.90;67.50;;;;;;5096813;28;20024;-66
2021/05/22 02:45:17;;;;;;;11.80;8.48;;;14.90;67.10;;;;;;5096398;28;20535;-66
2021/05/22 02:47:46;;;;;;;13.80;9.43;;;14.90;66.80;;;;;;5096590;28;20549;-66
2021/05/22 02:50:13;;;;;;;15.48;11.75;;;14.90;66.70;;;;;;5093528;28;20034;-66
2021/05/22 02:52:39;;;;;;;19.17;13.60;;;15.00;66.50;;;;;;5096216;28;20024;-66
2021/05/22 02:55:07;;;;;;;20.15;14.55;;;15.00;66.20;;;;;;5096494;28;20472;-66
2021/05/22 02:57:35;;;;;;;24.02;18.20;;;15.10;66.00;;;;;;5096455;28;20464;-66
2021/05/22 03:00:01;;;;;;;29.88;23.27;;;15.10;66.00;;;;;;5096455;28;20098;-66
2021/05/22 03:02:27;;;;;;;29.20;23.50;;;15.10;65.70;;;;;;5096579;28;20391;-66
2021/05/22 03:04:54;;;;;;;29.88;22.52;;;15.10;65.60;;;;;;5096321;28;20016;-66
2021/05/22 03:07:19;;;;;;;27.80;22.27;;;15.20;65.80;;;;;;5096171;28;20383;-66
2021/05/22 03:09:46;;;;;;;28.73;21.98;;;15.20;65.60;;;;;;5096158;28;20028;-66
2021/05/22 03:12:19;;;;;;;24.33;20.80;;;15.30;65.70;;;;;;5096139;28;20024;-66
2021/05/22 03:14:45;;;;;;;23.75;19.27;;;15.40;65.70;;;;;;5096223;28;20103;-66
2021/05/22 03:17:10;;;;;;;24.80;18.67;;;15.50;65.90;;;;;;5093002;28;20111;-66
2021/05/22 03:19:36;;;;;;;23.58;17.40;;;15.60;66.50;;;;;;5074189;28;20031;-67
2021/05/22 03:22:02;;;;;;;22.10;17.85;;;15.80;66.90;;;;;;5071212;28;20020;-67
2021/05/22 03:24:27;;;;;;;19.67;15.68;;;15.90;66.70;;;;;;5076766;28;20027;-67
2021/05/22 03:26:53;;;;;;;20.25;15.52;;;16.10;66.70;;;;;;5073591;28;20032;-68
2021/05/22 03:29:19;;;;;;;20.20;14.23;;;16.40;66.50;;;;;;5079776;28;20472;-67
2021/05/22 03:31:45;;;;;;;16.25;12.52;;;16.70;66.50;;;;;;5093645;28;20090;-67
2021/05/22 03:34:10;;;;;;;15.73;11.95;;;17.00;66.60;;;;;;5094010;28;20029;-67
2021/05/22 03:36:36;;;;;;;16.33;12.80;;;17.40;66.80;;;;;;5094877;28;20026;-67
2021/05/22 03:39:04;;;;;;;16.08;12.02;;;17.70;66.30;;;;;;5093728;28;20028;-68
2021/05/22 03:41:29;;;;;;;15.30;12.38;;;18.30;65.70;;;;;;5095703;28;20510;-68
2021/05/22 03:43:55;;;;;;;15.80;11.98;;;18.90;64.40;;;;;;5095290;28;20044;-68
2021/05/22 03:46:21;;;;;;;16.25;12.13;;;19.60;63.10;;;;;;5095851;28;20032;-68
2021/05/22 03:48:46;;;;;;;16.05;12.27;;;20.50;61.50;;;;;;5095331;28;20032;-68
2021/05/22 03:51:12;;;;;;;14.75;12.50;;;21.40;59.40;;;;;;5095001;28;20098;-67
2021/05/22 03:53:38;;;;;;;15.30;12.80;;;22.50;57.30;;;;;;5095357;28;20024;-67
2021/05/22 03:56:04;;;;;;;12.95;10.50;;;23.70;55.20;;;;;;5077201;28;20502;-67
2021/05/22 03:58:30;;;;;;;13.38;9.35;;;24.80;52.60;;;;;;5095242;28;20024;-67
2021/05/22 04:00:56;;;;;;;9.52;7.90;;;25.80;50.50;;;;;;5095087;28;20036;-68
2021/05/22 04:03:23;;;;;;;5.70;5.00;;;26.80;49.40;;;;;;5077085;28;20384;-68
2021/05/22 04:05:48;;;;;;;6.20;4.88;;;27.80;47.80;;;;;;5095223;28;20027;-68
2021/05/22 04:08:14;;;;;;;7.43;5.57;;;28.60;46.20;;;;;;5095101;28;20025;-68
2021/05/22 04:10:40;;;;;;;8.60;5.50;;;29.30;45.10;;;;;;5094981;28;20024;-68
2021/05/22 04:13:06;;;;;;;7.35;5.25;;;30.00;44.40;;;;;;5076751;28;20484;-68
2021/05/22 04:15:31;;;;;;;5.35;4.82;;;30.60;43.50;;;;;;5094940;28;20016;-68
2021/05/22 04:17:57;;;;;;;5.93;4.97;;;31.20;42.50;;;;;;5094837;28;20095;-68
2021/05/22 04:20:23;;;;;;;7.97;6.03;;;31.70;41.70;;;;;;5094536;28;20024;-68
2021/05/22 04:22:48;;;;;;;7.72;6.07;;;32.20;41.00;;;;;;5094783;28;20107;-68
2021/05/22 04:25:14;;;;;;;9.40;7.97;;;32.60;40.50;;;;;;5094659;28;20035;-68
2021/05/22 04:27:40;;;;;;;9.57;7.05;;;33.00;39.70;;;;;;5094686;28;20046;-68
2021/05/22 04:30:06;;;;;;;8.65;7.38;;;33.30;39.30;;;;;;5094645;28;20464;-68
2021/05/22 04:32:32;;;;;;;7.45;6.18;;;33.70;38.70;;;;;;5094167;28;20039;-67
2021/05/22 04:34:58;;;;;;;7.43;6.70;;;33.90;38.20;;;;;;5094551;28;20017;-67
2021/05/22 04:37:23;;;;;;;7.85;7.05;;;34.20;38.10;;;;;;5094442;28;20498;-67
2021/05/22 04:39:50;;;;;;;6.55;4.70;;;34.50;37.70;;;;;;5094482;28;20024;-67
2021/05/22 04:42:16;;;;;;;6.07;4.75;;;34.60;37.40;;;;;;5093502;28;20103;-67
2021/05/22 04:44:42;;;;;;;5.80;5.20;;;34.80;37.30;;;;;;5094296;28;20075;-67
2021/05/22 04:47:08;;;;;;;6.43;5.25;;;34.90;36.70;;;;;;5094157;28;20024;-67
2021/05/22 04:49:33;;;;;;;6.65;4.97;;;35.10;36.70;;;;;;5094369;28;20020;-67
2021/05/22 04:51:59;;;;;;;7.05;5.40;;;35.30;36.60;;;;;;5090548;28;20024;-67
2021/05/22 04:54:27;;;;;;;6.13;5.10;;;35.50;36.10;;;;;;5094194;28;20471;-67
2021/05/22 04:56:53;;;;;;;7.70;6.35;;;35.80;35.70;;;;;;5094125;28;20020;-67
2021/05/22 04:59:19;;;;;;;7.43;6.35;;;35.90;35.40;;;;;;5075899;28;20031;-67
2021/05/22 05:01:47;;;;;;;6.78;5.38;;;36.10;35.20;;;;;;5094277;28;20051;-67
2021/05/22 05:04:12;;;;;;;7.30;5.50;;;36.20;34.90;;;;;;5093926;28;20027;-67
2021/05/22 05:06:38;;;;;;;6.32;5.45;;;36.30;34.70;;;;;;5093956;28;20020;-67
2021/05/22 05:09:06;;;;;;;6.28;5.45;;;36.30;34.50;;;;;;5093862;28;20103;-67
2021/05/22 05:11:32;;;;;;;6.82;4.90;;;36.40;34.40;;;;;;5068064;28;20052;-68
2021/05/22 05:13:58;;;;;;;5.72;5.03;;;36.50;34.10;;;;;;5088654;28;20486;-68
2021/05/22 05:16:24;;;;;;;5.53;4.50;;;36.60;33.70;;;;;;5091943;28;20031;-68
2021/05/22 05:18:50;;;;;;;6.03;4.90;;;36.60;33.50;;;;;;5093318;28;20063;-68
2021/05/22 05:21:16;;;;;;;5.97;5.00;;;36.50;33.30;;;;;;5093376;28;20039;-68
2021/05/22 05:23:43;;;;;;;6.45;5.43;;;36.20;33.20;;;;;;5086767;28;20039;-68
2021/05/22 05:26:12;;;;;;;6.13;5.10;;;35.50;33.50;;;;;;5074723;28;20051;-68
2021/05/22 05:28:37;;;;;;;6.70;5.70;;;34.70;34.10;;;;;;5088342;28;20070;-68
2021/05/22 05:31:04;;;;;;;7.85;5.75;;;33.60;34.50;;;;;;5081266;28;20108;-68
2021/05/22 05:33:30;;;;;;;6.78;5.38;;;32.60;35.40;;;;;;5091005;28;20020;-68
2021/05/22 05:35:56;;;;;;;6.15;5.55;;;31.60;36.10;;;;;;5091293;28;20060;-68
2021/05/22 05:38:22;;;;;;;7.32;5.53;;;30.70;37.20;;;;;;5093026;28;20368;-68
2021/05/22 05:40:48;;;;;;;6.55;5.43;;;29.90;38.00;;;;;;5092850;28;20024;-68
2021/05/22 05:43:20;;;;;;;6.30;5.63;;;29.20;39.00;;;;;;5093340;28;20085;-68
2021/05/22 05:45:46;;;;;;;7.05;6.30;;;28.50;39.50;;;;;;5073578;28;20091;-68
2021/05/22 05:48:11;;;;;;;9.77;6.70;;;27.90;40.40;;;;;;5072958;28;20045;-68
2021/05/22 05:50:37;;;;;;;9.20;6.18;;;27.40;41.10;;;;;;5092950;28;20483;-68
2021/05/22 05:53:03;;;;;;;8.00;5.97;;;26.90;41.80;;;;;;5092771;28;20533;-68
2021/05/22 05:55:29;;;;;;;8.90;6.55;;;26.50;42.50;;;;;;5092953;28;20031;-68
2021/05/22 05:57:57;;;;;;;10.07;7.82;;;26.20;43.10;;;;;;5092015;28;20385;-68
2021/05/22 06:00:25;;;;;;;9.60;6.88;;;25.90;43.70;;;;;;5088914;28;20046;-68
2021/05/22 06:02:52;;;;;;;7.57;6.78;;;25.60;44.00;;;;;;5074021;28;20025;-67
2021/05/22 06:05:18;;;;;;;9.60;6.65;;;25.30;44.70;;;;;;5082902;28;20403;-67
2021/05/22 06:07:44;;;;;;;8.00;7.20;;;25.00;44.80;;;;;;5080679;28;20070;-67
2021/05/22 06:10:10;;;;;;;8.35;6.38;;;24.60;45.60;;;;;;5078982;28;20028;-67
2021/05/22 06:12:37;;;;;;;8.13;5.85;;;24.30;46.20;;;;;;5088416;28;20097;-67
2021/05/22 06:15:21;;;;;;;7.57;6.20;;;24.10;46.70;;;;;;5072314;28;20024;-67
2021/05/22 06:17:46;;;;;;;10.98;9.40;;;23.90;47.40;;;;;;5089302;28;20023;-67
2021/05/22 06:20:15;;;;;;;14.70;12.98;;;23.70;47.60;;;;;;5082592;28;20045;-67
2021/05/22 06:22:42;;;;;;;13.30;12.05;;;23.60;47.90;;;;;;5086187;28;20036;-67
2021/05/22 06:25:08;;;;;;;12.57;11.32;;;23.50;48.20;;;;;;5058706;28;20017;-67
2021/05/22 06:27:34;;;;;;;12.40;11.00;;;23.50;48.60;;;;;;5084129;28;20031;-67
2021/05/22 06:29:59;;;;;;;11.93;10.70;;;23.40;48.90;;;;;;5076525;28;20021;-67
2021/05/22 06:32:25;;;;;;;11.93;10.73;;;23.20;49.20;;;;;;5086303;28;20055;-67
2021/05/22 06:34:51;;;;;;;13.98;10.70;;;23.20;49.50;;;;;;5089733;28;20477;-67
2021/05/22 06:37:16;;;;;;;13.75;10.02;;;23.10;50.20;;;;;;5073629;28;20027;-67
2021/05/22 06:39:42;;;;;;;12.90;11.25;;;23.10;50.50;;;;;;5084594;28;20145;-67
2021/05/22 06:42:08;;;;;;;10.98;9.45;;;23.10;50.90;;;;;;5078162;28;20081;-67
2021/05/22 06:44:38;;;;;;;9.95;8.95;;;23.10;50.90;;;;;;5083449;28;20041;-67
2021/05/22 06:47:04;;;;;;;11.10;8.82;;;23.00;51.20;;;;;;5074450;28;20104;-67
2021/05/22 06:49:32;;;;;;;9.30;8.27;;;23.00;51.90;;;;;;5083621;28;20044;-67
2021/05/22 06:52:01;;;;;;;10.88;8.55;;;22.90;51.70;;;;;;5080905;28;20063;-67
2021/05/22 06:54:29;;;;;;;9.77;7.80;;;22.90;51.90;;;;;;5080321;28;20409;-67
2021/05/22 06:56:54;;;;;;;8.20;6.60;;;22.90;52.50;;;;;;5081843;28;20016;-67
2021/05/22 06:59:20;;;;;;;8.30;6.85;;;22.90;51.50;;;;;;5064161;28;20157;-68
2021/05/22 07:01:49;;;;;;;12.00;8.07;;;22.90;51.80;;;;;;5061619;28;20017;-68
2021/05/22 07:04:15;;;;;;;8.43;7.53;;;22.90;52.60;;;;;;5072527;28;20028;-68
2021/05/22 07:06:40;;;;;;;11.32;7.82;;;22.90;53.20;;;;;;5075382;28;20480;-68
2021/05/22 07:09:06;;;;;;;9.75;8.23;;;22.90;53.40;;;;;;5075520;28;20044;-66
2021/05/22 07:11:34;;;;;;;8.23;7.43;;;22.90;53.40;;;;;;5083916;28;20035;-66
2021/05/22 07:14:03;;;;;;;8.23;7.00;;;22.90;53.20;;;;;;5077126;28;20020;-66
2021/05/22 07:16:29;;;;;;;10.43;7.63;;;22.80;52.70;;;;;;5082073;28;20433;-66
2021/05/22 07:18:54;;;;;;;7.22;6.50;;;22.80;52.70;;;;;;5084811;28;20024;-66
2021/05/22 07:21:20;;;;;;;9.15;7.18;;;22.80;52.00;;;;;;5085436;28;20388;-68
2021/05/22 07:23:49;;;;;;;7.85;7.03;;;22.70;52.50;;;;;;5065451;28;20025;-67
2021/05/22 07:26:17;;;;;;;7.47;6.75;;;22.70;52.70;;;;;;5057450;28;20107;-67
2021/05/22 07:28:42;;;;;;;8.45;6.95;;;22.60;52.80;;;;;;5075409;28;20465;-68
2021/05/22 07:31:08;;;;;;;7.43;6.63;;;22.60;52.80;;;;;;5075530;28;20051;-68
2021/05/22 07:33:39;;;;;;;7.78;6.93;;;22.60;53.00;;;;;;5075231;28;20107;-67
2021/05/22 07:36:05;;;;;;;6.82;5.50;;;22.50;52.50;;;;;;5075358;28;20028;-67
2021/05/22 07:38:30;;;;;;;6.00;5.03;;;22.50;52.30;;;;;;5074839;28;20045;-67
2021/05/22 07:40:57;;;;;;;5.82;4.85;;;22.50;52.00;;;;;;5078097;28;20028;-67
2021/05/22 07:43:25;;;;;;;4.78;4.03;;;22.50;51.90;;;;;;5082184;28;20157;-67
2021/05/22 07:45:53;;;;;;;4.60;3.17;;;22.50;51.70;;;;;;5095032;28;20067;-67
2021/05/22 07:48:19;;;;;;;3.80;3.00;;;22.50;50.10;;;;;;5094610;28;20049;-67
2021/05/22 07:50:45;;;;;;;4.43;2.78;;;22.40;49.30;;;;;;5093102;28;20024;-67
2021/05/22 07:53:10;;;;;;;3.30;2.75;;;22.50;49.20;;;;;;5094453;28;20520;-67
2021/05/22 07:55:36;;;;;;;4.18;3.10;;;22.40;48.40;;;;;;5089710;28;20107;-67
2021/05/22 07:58:01;;;;;;;5.05;3.25;;;22.40;48.80;;;;;;5093525;28;20060;-67
2021/05/22 08:00:27;;;;;;;6.07;3.17;;;22.30;48.60;;;;;;5092660;28;20114;-67
2021/05/22 08:02:53;;;;;;;3.72;3.00;;;22.40;48.80;;;;;;5092965;28;20149;-67
2021/05/22 08:05:21;;;;;;;5.28;3.70;;;22.30;48.70;;;;;;5093021;28;20050;-67
2021/05/22 08:07:47;;;;;;;5.13;3.35;;;22.30;48.80;;;;;;5093492;28;20020;-67
2021/05/22 08:10:15;;;;;;;4.45;3.33;;;22.30;48.80;;;;;;5094731;28;20127;-67
2021/05/22 08:12:41;;;;;;;5.13;2.50;;;22.30;48.20;;;;;;5093605;28;20067;-67
2021/05/22 08:15:08;;;;;;;3.15;2.28;;;22.30;48.20;;;;;;5090614;28;20059;-67
2021/05/22 08:17:33;;;;;;;3.05;1.90;;;22.30;47.60;;;;;;5094635;28;20085;-67
2021/05/22 08:19:59;;;;;;;3.08;2.38;;;22.30;47.60;;;;;;5094704;28;20036;-67
2021/05/22 08:22:25;;;;;;;2.40;2.20;;;22.30;47.20;;;;;;5094628;28;20024;-67
2021/05/22 08:24:50;;;;;;;6.10;2.80;;;22.30;47.10;;;;;;5072844;28;20491;-67
2021/05/22 08:27:19;;;;;;;2.13;1.80;;;22.20;47.00;;;;;;5074560;28;20059;-67
2021/05/22 08:29:44;;;;;;;1.10;1.10;;;22.20;46.20;;;;;;5074066;28;20085;-67
2021/05/22 08:32:10;;;;;;;1.70;1.58;;;22.10;45.90;;;;;;5079166;28;20020;-67
2021/05/22 08:34:39;;;;;;;1.33;1.20;;;22.10;46.00;;;;;;5094481;28;20205;-67
2021/05/22 08:37:05;;;;;;;1.63;1.40;;;22.10;45.90;;;;;;5094304;28;20494;-67
2021/05/22 08:39:31;;;;;;;1.80;1.70;;;22.00;45.10;;;;;;5094277;28;20133;-67
2021/05/22 08:41:57;;;;;;;2.53;1.50;;;22.00;45.20;;;;;;5076074;28;20482;-67
2021/05/22 08:44:23;;;;;;;2.72;1.55;;;22.00;45.20;;;;;;5093818;28;20058;-67
2021/05/22 08:46:49;;;;;;;2.45;1.67;;;22.00;45.00;;;;;;5094185;28;20024;-67
2021/05/22 08:49:16;;;;;;;3.17;1.45;;;21.90;45.00;;;;;;5094006;28;20430;-67
2021/05/22 08:51:43;;;;;;;2.28;1.70;;;21.90;44.90;;;;;;5089891;28;20448;-67
2021/05/22 08:54:09;;;;;;;2.83;1.80;;;21.90;44.80;;;;;;5094030;28;20028;-67
2021/05/22 08:56:34;;;;;;;1.38;1.27;;;21.90;44.90;;;;;;5093741;28;20447;-67
2021/05/22 08:59:00;;;;;;;1.40;1.30;;;21.90;44.90;;;;;;5093989;28;20034;-67
2021/05/22 09:01:26;;;;;;;1.40;1.35;;;21.90;44.50;;;;;;5093953;28;20020;-67
2021/05/22 09:03:56;;;;;;;1.63;1.52;;;21.80;43.90;;;;;;5090702;28;20036;-67
2021/05/22 09:06:22;;;;;;;1.63;1.52;;;21.80;43.80;;;;;;5073128;28;20499;-67
2021/05/22 09:09:04;;;;;;;1.60;1.50;;;21.70;44.10;;;;;;5073685;28;20032;-67
2021/05/22 09:11:46;;;;;;;2.58;1.70;;;21.70;44.70;;;;;;5073419;28;20031;-67
2021/05/22 09:14:45;;;;;;;2.40;1.88;;;21.70;44.80;;;;;;5073379;28;20028;-67
2021/05/22 09:17:13;;;;;;;1.50;1.40;;;21.60;44.80;;;;;;5077314;28;20090;-67
2021/05/22 09:19:39;;;;;;;1.60;1.50;;;21.60;44.20;;;;;;5080683;28;20169;-67
2021/05/22 09:22:25;;;;;;;1.17;1.15;;;21.50;43.60;;;;;;5070842;28;20055;-67
2021/05/22 09:25:03;;;;;;;1.40;1.30;;;21.50;43.20;;;;;;5080847;28;20376;-67
2021/05/22 09:27:34;;;;;;;1.73;1.00;;;21.50;43.00;;;;;;5090374;28;20020;-67
2021/05/22 09:30:07;;;;;;;1.13;1.08;;;21.40;42.30;;;;;;5072892;28;20491;-67
2021/05/22 09:32:33;;;;;;;1.17;1.08;;;21.40;41.30;;;;;;5083445;28;20473;-67
2021/05/22 09:34:59;;;;;;;1.27;1.10;;;21.30;41.20;;;;;;5081718;28;20036;-67
2021/05/22 09:37:24;;;;;;;1.50;1.40;;;21.30;41.80;;;;;;5084950;28;20426;-67
2021/05/22 09:39:53;;;;;;;1.60;1.08;;;21.30;41.10;;;;;;5081833;28;20029;-67
2021/05/22 09:42:26;;;;;;;1.48;1.20;;;21.30;41.40;;;;;;5081219;28;20119;-67
2021/05/22 09:44:52;;;;;;;1.73;1.63;;;21.20;41.00;;;;;;5085291;28;20044;-67
2021/05/22 09:47:18;;;;;;;1.77;1.40;;;21.20;40.90;;;;;;5088612;28;20030;-67
2021/05/22 09:49:49;;;;;;;2.47;1.90;;;21.20;41.60;;;;;;5078421;28;20024;-67
2021/05/22 09:52:16;;;;;;;1.70;1.60;;;21.10;41.50;;;;;;5083417;28;20504;-67
2021/05/22 09:54:59;;;;;;;1.30;1.30;;;21.10;41.70;;;;;;5085865;28;20021;-67
2021/05/22 09:57:35;;;;;;;2.20;1.73;;;21.10;42.20;;;;;;5086495;28;20057;-67
2021/05/22 10:00:15;;;;;;;2.47;1.67;;;21.10;42.70;;;;;;5088401;28;20080;-67
2021/05/22 10:02:49;;;;;;;4.63;3.05;;;21.10;43.00;;;;;;5080014;28;20024;-67
2021/05/22 10:05:21;;;;;;;2.25;2.05;;;21.10;43.30;;;;;;5084740;28;20503;-67
2021/05/22 10:07:49;;;;;;;2.03;1.83;;;21.10;43.60;;;;;;5090534;28;20436;-67
2021/05/22 10:10:16;;;;;;;2.22;1.75;;;21.10;43.40;;;;;;5085495;28;20028;-67
2021/05/22 10:12:44;;;;;;;2.67;1.50;;;21.20;43.70;;;;;;5078922;28;20021;-67
2021/05/22 10:15:15;;;;;;;1.88;1.77;;;21.20;43.90;;;;;;5088464;28;20035;-67
2021/05/22 10:17:42;;;;;;;;;;;21.20;44.70;;;;;;5059473;28;20020;-67
2021/05/22 10:20:09;;;;;;;1.42;1.33;;;21.20;45.40;;;;;;5088967;28;19908;-67
2021/05/22 10:22:35;;;;;;;1.90;1.73;;;21.10;44.80;;;;;;5077777;28;20029;-67
2021/05/22 10:25:08;;;;;;;2.10;1.70;;;21.10;44.40;;;;;;5079679;28;20024;-67
2021/05/22 10:27:34;;;;;;;2.42;1.80;;;21.10;44.60;;;;;;5059708;28;20024;-67
2021/05/22 10:30:05;;;;;;;1.50;1.40;;;21.00;44.90;;;;;;5083836;28;20448;-67
2021/05/22 10:32:32;;;;;;;2.25;1.70;;;20.90;45.10;;;;;;5078869;28;20398;-67
2021/05/22 10:35:06;;;;;;;1.90;1.77;;;20.90;45.90;;;;;;5079980;28;20020;-67
2021/05/22 10:37:35;;;;;;;2.33;2.05;;;20.80;46.40;;;;;;5088373;28;20058;-67
2021/05/22 10:40:02;;;;;;;4.07;3.22;;;20.90;46.90;;;;;;5077347;28;20021;-67
2021/05/22 10:42:31;;;;;;;5.65;3.50;;;20.90;46.80;;;;;;5082903;28;20043;-67
2021/05/22 10:44:57;;;;;;;3.60;2.92;;;20.80;46.80;;;;;;5073165;28;20067;-67
2021/05/22 10:47:28;;;;;;;5.55;3.65;;;20.90;46.50;;;;;;5088863;28;20028;-67
2021/05/22 10:50:02;;;;;;;4.85;2.90;;;20.90;46.70;;;;;;5084219;28;20024;-67
2021/05/22 10:52:29;;;;;;;4.05;2.60;;;20.90;46.70;;;;;;5084311;28;20411;-67
2021/05/22 10:55:08;;;;;;;3.28;2.25;;;20.80;47.00;;;;;;5089116;28;20073;-67
2021/05/22 10:57:46;;;;;;;3.22;2.58;;;20.80;46.40;;;;;;5088650;28;20039;-67
2021/05/22 11:00:18;;;;;;;3.05;2.47;;;20.80;46.40;;;;;;5091512;28;20535;-67
2021/05/22 11:02:45;;;;;;;2.20;2.00;;;20.80;46.50;;;;;;5091520;28;20023;-67
2021/05/22 11:05:31;;;;;;;2.10;1.80;;;20.70;45.90;;;;;;5083633;28;20012;-67
2021/05/22 11:08:03;;;;;;;1.77;1.67;;;20.80;45.80;;;;;;5083829;28;20119;-67
2021/05/22 11:10:59;;;;;;;1.90;1.80;;;20.80;45.50;;;;;;5072480;28;20429;-67
2021/05/22 11:13:24;;;;;;;1.50;1.40;;;20.80;45.70;;;;;;5073329;28;20131;-67
2021/05/22 11:16:00;;;;;;;1.98;1.60;;;20.80;45.80;;;;;;5089451;28;20528;-67
2021/05/22 11:18:27;;;;;;;3.17;1.70;;;20.80;45.70;;;;;;5093351;28;20056;-67
2021/05/22 11:21:09;;;;;;;2.08;1.88;;;20.80;45.90;;;;;;5065566;28;20028;-67
2021/05/22 11:23:53;;;;;;;;;;;20.80;46.00;;;;;;5091363;28;20031;-67
2021/05/22 11:26:52;;;;;;;1.80;1.70;;;20.80;46.20;;;;;;5078488;28;19912;-67
2021/05/22 11:29:18;;;;;;;2.25;2.05;;;20.80;46.50;;;;;;5072033;28;20222;-67
2021/05/22 11:31:44;;;;;;;2.30;2.10;;;20.80;46.10;;;;;;5094171;28;20062;-67
2021/05/22 11:34:22;;;;;;;2.78;2.03;;;20.80;46.30;;;;;;5088773;28;20032;-67
2021/05/22 11:37:09;;;;;;;4.05;1.95;;;20.80;46.00;;;;;;5067534;28;20040;-67
2021/05/22 11:39:45;;;;;;;3.53;2.00;;;20.80;45.60;;;;;;5091698;28;20055;-67
2021/05/22 11:42:30;;;;;;;1.90;1.70;;;20.70;45.50;;;;;;5090255;28;20020;-67
2021/05/22 11:44:58;;;;;;;3.65;1.80;;;20.70;46.20;;;;;;5078923;28;20058;-67
2021/05/22 11:47:33;;;;;;;1.98;1.75;;;20.70;45.20;;;;;;5081934;28;20066;-67
2021/05/22 11:50:00;;;;;;;1.60;1.50;;;20.70;44.90;;;;;;5084544;28;20032;-67
2021/05/22 11:52:34;;;;;;;2.20;2.00;;;20.70;44.60;;;;;;5076594;28;20035;-67
2021/05/22 11:55:15;;;;;;;2.30;2.10;;;20.70;45.20;;;;;;5080009;28;20099;-67
2021/05/22 11:57:40;;;;;;;1.65;1.55;;;20.80;45.20;;;;;;5083956;28;20468;-67
2021/05/22 12:00:08;;;;;;;1.77;1.67;;;20.80;45.00;;;;;;5084309;28;20044;-67
2021/05/22 12:02:41;;;;;;;1.92;1.80;;;20.80;44.60;;;;;;5085345;28;20059;-67
2021/05/22 12:05:09;;;;;;;1.95;1.83;;;20.80;45.10;;;;;;5093948;28;20472;-67
2021/05/22 12:07:51;;;;;;;1.67;1.58;;;20.90;45.20;;;;;;5088047;28;20145;-67
2021/05/22 12:10:18;;;;;;;2.05;1.88;;;20.90;45.30;;;;;;5058826;28;20475;-67
2021/05/22 12:12:45;;;;;;;1.65;1.55;;;20.90;45.60;;;;;;5080222;28;20050;-67
2021/05/22 12:15:25;;;;;;;1.50;1.40;;;20.90;45.90;;;;;;5088163;28;20024;-67
2021/05/22 12:17:54;;;;;;;1.50;1.40;;;20.90;46.00;;;;;;5082658;28;20028;-67
2021/05/22 12:20:21;;;;;;;2.45;1.52;;;20.90;45.70;;;;;;5089771;28;20052;-67
2021/05/22 12:22:47;;;;;;;1.70;1.58;;;20.90;46.10;;;;;;5086464;28;20043;-67
2021/05/22 12:25:13;;;;;;;1.40;1.30;;;20.90;46.50;;;;;;5081728;28;20016;-67
2021/05/22 12:27:39;;;;;;;1.90;1.80;;;20.90;46.80;;;;;;5087700;28;20032;-67
2021/05/22 12:30:07;;;;;;;1.70;1.60;;;20.90;47.00;;;;;;5080110;28;20012;-67
2021/05/22 12:32:33;;;;;;;1.50;1.40;;;20.90;46.90;;;;;;5089328;28;20031;-67
2021/05/22 12:35:05;;;;;;;1.92;1.73;;;20.90;46.90;;;;;;5075828;28;20024;-67
2021/05/22 12:37:31;;;;;;;2.78;1.80;;;20.90;45.70;;;;;;5086246;28;20020;-67
2021/05/22 12:40:04;;;;;;;6.53;1.70;;;20.90;45.70;;;;;;5083501;28;20084;-67
2021/05/22 12:42:35;;;;;;;4.65;2.20;;;20.90;44.70;;;;;;5077754;28;20030;-67
2021/05/22 12:45:14;;;;;;;3.30;2.10;;;20.90;43.50;;;;;;5087923;28;20029;-67
2021/05/22 12:47:45;;;;;;;3.25;2.55;;;20.80;43.00;;;;;;5078150;28;20388;-67
2021/05/22 12:50:12;;;;;;;;;;;20.80;43.00;;;;;;5069578;28;20016;-67